createdAt,value
2019-04-14T00:04:36.326Z,1.22
2019-04-14T00:09:41.551Z,1.17
2019-04-14T00:14:47.004Z,1.14
2019-04-14T00:19:52.998Z,1.18
2019-04-14T00:24:59.638Z,1.13
2019-04-14T00:30:07.588Z,1.26
2019-04-14T00:35:23.124Z,1.33
2019-04-14T00:40:34.671Z,1.30
2019-04-14T00:45:52.690Z,1.27
2019-04-14T00:50:56.038Z,1.26
2019-04-14T00:56:01.973Z,1.16
2019-04-14T01:01:07.492Z,1.14
2019-04-14T01:06:12.659Z,1.07
2019-04-14T01:11:18.187Z,1.09
2019-04-14T01:16:25.015Z,1.17
2019-04-14T01:21:31.339Z,1.05
2019-04-14T01:26:37.796Z,0.99
2019-04-14T01:31:44.671Z,0.96
2019-04-14T01:36:49.991Z,0.72
2019-04-14T01:41:56.319Z,0.61
2019-04-14T01:47:01.647Z,0.57
2019-04-14T01:52:18.831Z,0.60
2019-04-14T01:57:41.396Z,0.62
2019-04-14T02:02:47.134Z,0.63
2019-04-14T02:07:53.760Z,0.64
2019-04-14T02:12:58.990Z,0.53
2019-04-14T02:18:05.591Z,0.55
2019-04-14T02:23:12.441Z,0.53
2019-04-14T02:28:17.876Z,0.52
2019-04-14T02:39:10.352Z,0.35
2019-04-14T02:44:15.907Z,0.39
2019-04-14T02:49:16.881Z,0.33
2019-04-14T02:54:32.669Z,0.23
2019-04-14T02:59:27.045Z,0.13
2019-04-14T03:04:41.360Z,0.12
2019-04-14T03:09:41.806Z,0.12
2019-04-14T03:14:50.320Z,0.11
2019-04-14T03:25:15.202Z,0.04
2019-04-14T03:31:12.230Z,0.07
2019-04-14T03:41:00.232Z,-0.01
2019-04-14T03:46:09.671Z,0.05
2019-04-14T03:51:21.313Z,0.03
2019-04-14T03:56:27.047Z,-0.04
2019-04-14T04:01:32.349Z,-0.03
2019-04-14T04:06:38.287Z,-0.11
2019-04-14T04:11:43.518Z,-0.20
2019-04-14T04:17:05.811Z,-0.19
2019-04-14T04:22:28.911Z,-0.25
2019-04-14T04:27:52.898Z,-0.24
2019-04-14T04:33:15.516Z,-0.25
2019-04-14T04:38:27.717Z,-0.41
2019-04-14T04:43:34.146Z,-0.49
2019-04-14T04:48:39.362Z,-0.43
2019-04-14T04:53:44.479Z,-0.31
2019-04-14T04:58:50.566Z,-0.26
2019-04-14T05:03:55.739Z,-0.18
2019-04-14T05:09:07.924Z,-0.07
2019-04-14T05:14:19.476Z,0.04
2019-04-14T05:19:30.298Z,0.15
2019-04-14T05:24:33.247Z,0.27
2019-04-14T05:29:38.669Z,0.40
2019-04-14T05:34:43.868Z,0.37
2019-04-14T05:39:50.413Z,0.55
2019-04-14T05:44:57.826Z,0.66
2019-04-14T05:50:03.219Z,0.66
2019-04-14T05:55:08.863Z,0.70
2019-04-14T06:00:17.371Z,0.60
2019-04-14T06:05:23.255Z,0.63
2019-04-14T06:10:28.656Z,0.62
2019-04-14T06:15:34.558Z,0.77
2019-04-14T06:20:41.024Z,0.72
2019-04-14T06:25:46.222Z,0.68
2019-04-14T06:31:09.143Z,0.72
2019-04-14T06:36:29.737Z,0.73
2019-04-14T06:41:37.169Z,0.76
2019-04-14T06:46:42.950Z,0.71
2019-04-14T06:51:48.186Z,0.70
2019-04-14T06:56:53.693Z,0.70
2019-04-14T07:01:59.274Z,0.64
2019-04-14T07:07:05.779Z,0.64
2019-04-14T07:12:11.452Z,0.74
2019-04-14T07:17:16.738Z,0.76
2019-04-14T07:22:22.973Z,0.77
2019-04-14T07:27:28.893Z,0.78
2019-04-14T07:32:50.545Z,0.83
2019-04-14T07:38:18.016Z,0.90
2019-04-14T07:43:35.283Z,0.93
2019-04-14T07:49:05.706Z,0.91
2019-04-14T07:54:41.307Z,0.86
2019-04-14T08:00:12.742Z,0.97
2019-04-14T08:05:21.147Z,0.99
2019-04-14T08:10:26.736Z,0.98
2019-04-14T08:15:32.801Z,1.02
2019-04-14T08:20:38.661Z,1.10
2019-04-14T08:25:44.244Z,1.16
2019-04-14T08:30:49.393Z,1.25
2019-04-14T08:35:54.473Z,1.28
2019-04-14T08:40:59.650Z,1.32
2019-04-14T08:46:27.549Z,1.43
2019-04-14T08:51:51.610Z,1.38
2019-04-14T08:57:14.924Z,1.41
2019-04-14T09:02:27.222Z,1.46
2019-04-14T09:07:36.644Z,1.68
2019-04-14T09:12:49.099Z,1.90
2019-04-14T09:17:54.983Z,1.92
2019-04-14T09:23:00.123Z,2.13
2019-04-14T09:28:05.338Z,2.33
2019-04-14T09:33:11.197Z,2.30
2019-04-14T09:38:16.698Z,2.45
2019-04-14T09:43:21.770Z,2.43
2019-04-14T09:48:27.044Z,2.39
2019-04-14T09:53:32.841Z,2.34
2019-04-14T09:58:37.845Z,2.35
2019-04-14T10:03:43.252Z,2.32
2019-04-14T10:08:48.391Z,2.27
2019-04-14T10:13:54.728Z,2.35
2019-04-14T10:19:00.278Z,2.36
2019-04-14T10:24:06.495Z,2.38
2019-04-14T10:29:11.566Z,2.48
2019-04-14T10:34:16.979Z,2.43
2019-04-14T10:39:22.427Z,2.54
2019-04-14T10:44:27.554Z,2.31
2019-04-14T10:49:33.089Z,2.35
2019-04-14T10:54:38.760Z,2.46
2019-04-14T10:59:43.833Z,2.37
2019-04-14T11:04:49.058Z,2.49
2019-04-14T11:09:54.526Z,2.45
2019-04-14T11:14:59.598Z,2.37
2019-04-14T11:20:05.202Z,2.56
2019-04-14T11:25:11.629Z,2.79
2019-04-14T11:30:20.590Z,2.94
2019-04-14T11:35:47.535Z,3.10
2019-04-14T11:41:00.064Z,2.95
2019-04-14T11:46:05.402Z,3.01
2019-04-14T11:51:12.028Z,3.25
2019-04-14T11:56:17.832Z,3.28
2019-04-14T12:01:37.899Z,3.30
2019-04-14T12:07:14.978Z,3.30
2019-04-14T12:12:20.204Z,3.39
2019-04-14T12:17:25.308Z,3.41
2019-04-14T12:22:30.843Z,3.35
2019-04-14T12:27:35.914Z,3.49
2019-04-14T12:32:42.115Z,3.44
2019-04-14T12:37:47.260Z,3.36
2019-04-14T12:43:07.130Z,3.33
2019-04-14T12:48:37.054Z,3.34
2019-04-14T12:53:42.197Z,3.36
2019-04-14T12:59:12.719Z,3.41
2019-04-14T13:04:18.440Z,3.40
2019-04-14T13:09:23.587Z,3.55
2019-04-14T13:14:28.744Z,3.62
2019-04-14T13:19:34.377Z,3.78
2019-04-14T13:24:39.616Z,3.73
2019-04-14T13:29:45.210Z,3.76
2019-04-14T13:34:50.631Z,3.74
2019-04-14T13:39:55.641Z,3.57
2019-04-14T13:45:00.764Z,3.60
2019-04-14T13:50:06.788Z,3.48
2019-04-14T13:55:12.376Z,3.52
2019-04-14T14:00:18.960Z,3.59
2019-04-14T14:05:24.064Z,3.53
2019-04-14T14:10:30.679Z,3.42
2019-04-14T14:16:04.158Z,3.43
2019-04-14T14:21:27.689Z,3.37
2019-04-14T14:26:34.222Z,3.37
2019-04-14T14:31:39.409Z,3.39
2019-04-14T14:36:44.558Z,3.43
2019-04-14T14:41:49.714Z,3.23
2019-04-14T14:47:02.427Z,3.42
2019-04-14T14:52:09.708Z,3.36
2019-04-14T14:57:15.322Z,3.39
2019-04-14T15:02:21.157Z,3.29
2019-04-14T15:07:26.429Z,3.22
2019-04-14T15:12:31.835Z,3.23
2019-04-14T15:17:37.103Z,3.28
2019-04-14T15:22:42.296Z,3.27
2019-04-14T15:27:47.814Z,3.30
2019-04-14T15:32:52.913Z,3.31
2019-04-14T15:37:58.155Z,3.32
2019-04-14T15:43:03.463Z,3.32
2019-04-14T15:48:09.330Z,3.30
2019-04-14T15:53:14.909Z,3.34
2019-04-14T15:58:47.933Z,3.26
2019-04-14T16:03:58.071Z,3.35
2019-04-14T16:09:13.440Z,3.29
2019-04-14T16:14:38.438Z,3.22
2019-04-14T16:19:50.120Z,3.29
2019-04-14T16:24:55.219Z,3.18
2019-04-14T16:30:20.088Z,3.22
2019-04-14T16:35:28.101Z,3.20
2019-04-14T16:40:34.447Z,3.26
2019-04-14T16:45:40.096Z,3.22
2019-04-14T16:50:45.609Z,3.20
2019-04-14T16:56:22.116Z,3.24
2019-04-14T17:01:32.236Z,3.26
2019-04-14T17:06:37.490Z,3.31
2019-04-14T17:11:43.983Z,3.35
2019-04-14T17:17:08.983Z,3.40
2019-04-14T17:22:35.879Z,3.40
2019-04-14T17:27:57.577Z,3.39
2019-04-14T17:33:20.889Z,3.42
2019-04-14T17:38:38.650Z,3.44
2019-04-14T17:44:02.364Z,3.42
2019-04-14T17:49:38.931Z,3.48
2019-04-14T17:54:54.336Z,3.48
2019-04-14T18:00:11.473Z,3.49
2019-04-14T18:05:37.279Z,3.56
2019-04-14T18:11:07.761Z,3.57
2019-04-14T18:16:22.993Z,3.57
2019-04-14T18:21:28.443Z,3.53
2019-04-14T18:26:33.954Z,3.55
2019-04-14T18:31:57.015Z,3.55
2019-04-14T18:37:09.558Z,3.56
2019-04-14T18:42:28.803Z,3.63
2019-04-14T18:47:46.401Z,3.62
2019-04-14T18:53:10.497Z,3.60
2019-04-14T18:58:33.388Z,3.61
2019-04-14T19:03:39.031Z,3.55
2019-04-14T19:08:44.636Z,3.58
2019-04-14T19:13:52.220Z,3.62
2019-04-14T19:18:59.120Z,3.65
2019-04-14T19:24:04.693Z,3.66
2019-04-14T19:29:10.969Z,3.69
2019-04-14T19:34:16.426Z,3.70
2019-04-14T19:39:22.478Z,3.73
2019-04-14T19:44:28.028Z,3.75
2019-04-14T19:49:33.215Z,3.73
2019-04-14T19:54:38.486Z,3.80
2019-04-14T19:59:43.590Z,3.81
2019-04-14T20:04:48.747Z,3.83
2019-04-14T20:09:54.507Z,3.82
2019-04-14T20:15:00.520Z,3.84
2019-04-14T20:20:24.350Z,3.84
2019-04-14T20:25:47.308Z,3.87
2019-04-14T20:30:57.928Z,3.87
2019-04-14T20:36:05.312Z,3.90
2019-04-14T20:41:09.943Z,3.91
2019-04-14T20:46:15.286Z,3.96
2019-04-14T20:51:20.756Z,3.99
2019-04-14T20:56:25.915Z,3.95
2019-04-14T21:01:34.471Z,3.96
2019-04-14T21:06:51.654Z,4.05
2019-04-14T21:12:17.182Z,4.03
2019-04-14T21:17:44.189Z,4.10
2019-04-14T21:22:55.544Z,4.24
2019-04-14T21:28:31.795Z,4.41
2019-04-14T21:34:05.450Z,4.51
2019-04-14T21:39:32.675Z,4.42
2019-04-14T21:44:37.828Z,4.29
2019-04-14T21:49:43.881Z,4.11
2019-04-14T21:54:49.820Z,4.03
2019-04-14T22:00:13.372Z,3.90
2019-04-14T22:05:29.904Z,3.90
2019-04-14T22:10:39.676Z,3.94
2019-04-14T22:15:44.968Z,3.78
2019-04-14T22:20:50.117Z,3.77
2019-04-14T22:25:57.760Z,3.78
2019-04-14T22:31:02.967Z,3.79
2019-04-14T22:36:08.118Z,3.84
2019-04-14T22:41:13.853Z,3.80
2019-04-14T22:46:18.958Z,3.79
2019-04-14T22:51:24.469Z,3.84
2019-04-14T22:56:39.013Z,3.85
2019-04-14T23:01:38.502Z,3.87
2019-04-14T23:07:01.097Z,3.88
2019-04-14T23:12:40.725Z,3.90
2019-04-14T23:17:54.752Z,3.95
2019-04-14T23:23:31.012Z,3.97
2019-04-14T23:28:36.173Z,3.90
2019-04-14T23:33:42.021Z,3.85
2019-04-14T23:38:47.195Z,3.82
2019-04-14T23:43:52.294Z,3.83
2019-04-14T23:48:57.741Z,3.84
2019-04-14T23:54:02.957Z,3.86
2019-04-14T23:59:08.191Z,3.86
